sensor_id;sensor_type;location;lat;lon;timestamp;P1;durP1;ratioP1;P2;durP2;ratioP2
57233;SDS011;43090;52.604;13.318;2023-04-08T00:01:26;35.90;;;17.13;;
57233;SDS011;43090;52.604;13.318;2023-04-08T00:03:52;38.78;;;17.27;;
57233;SDS011;43090;52.604;13.318;2023-04-08T00:06:19;38.70;;;18.30;;
57233;SDS011;43090;52.604;13.318;2023-04-08T00:08:46;43.95;;;19.23;;
57233;SDS011;43090;52.604;13.318;2023-04-08T00:13:39;39.65;;;18.92;;
57233;SDS011;43090;52.604;13.318;2023-04-08T00:16:05;41.20;;;18.92;;
57233;SDS011;43090;52.604;13.318;2023-04-08T00:18:33;36.78;;;18.95;;
57233;SDS011;43090;52.604;13.318;2023-04-08T00:20:59;52.60;;;20.38;;
57233;SDS011;43090;52.604;13.318;2023-04-08T00:25:52;46.72;;;19.75;;
57233;SDS011;43090;52.604;13.318;2023-04-08T00:28:19;40.38;;;17.13;;
57233;SDS011;43090;52.604;13.318;2023-04-08T00:30:46;56.92;;;20.73;;
57233;SDS011;43090;52.604;13.318;2023-04-08T00:33:12;43.92;;;19.63;;
57233;SDS011;43090;52.604;13.318;2023-04-08T00:35:39;47.10;;;21.48;;
57233;SDS011;43090;52.604;13.318;2023-04-08T00:38:05;54.40;;;21.35;;
57233;SDS011;43090;52.604;13.318;2023-04-08T00:40:33;38.70;;;17.52;;
57233;SDS011;43090;52.604;13.318;2023-04-08T00:43:00;52.50;;;21.95;;
57233;SDS011;43090;52.604;13.318;2023-04-08T00:45:26;51.95;;;22.33;;
57233;SDS011;43090;52.604;13.318;2023-04-08T00:47:53;53.75;;;21.02;;
57233;SDS011;43090;52.604;13.318;2023-04-08T00:50:19;50.28;;;21.58;;
57233;SDS011;43090;52.604;13.318;2023-04-08T00:55:13;48.15;;;21.27;;
57233;SDS011;43090;52.604;13.318;2023-04-08T00:57:39;51.85;;;20.45;;
57233;SDS011;43090;52.604;13.318;2023-04-08T01:00:07;55.78;;;22.20;;
57233;SDS011;43090;52.604;13.318;2023-04-08T01:02:40;42.28;;;17.83;;
57233;SDS011;43090;52.604;13.318;2023-04-08T01:05:19;58.88;;;23.77;;
57233;SDS011;43090;52.604;13.318;2023-04-08T01:08:04;50.70;;;21.50;;
57233;SDS011;43090;52.604;13.318;2023-04-08T01:10:33;47.40;;;18.00;;
57233;SDS011;43090;52.604;13.318;2023-04-08T01:13:06;63.15;;;24.33;;
57233;SDS011;43090;52.604;13.318;2023-04-08T01:15:35;57.00;;;23.13;;
57233;SDS011;43090;52.604;13.318;2023-04-08T01:18:06;58.78;;;21.70;;
57233;SDS011;43090;52.604;13.318;2023-04-08T01:20:35;61.17;;;24.67;;
57233;SDS011;43090;52.604;13.318;2023-04-08T01:23:06;57.95;;;23.85;;
57233;SDS011;43090;52.604;13.318;2023-04-08T01:25:55;58.80;;;22.83;;
57233;SDS011;43090;52.604;13.318;2023-04-08T01:28:23;62.08;;;25.17;;
57233;SDS011;43090;52.604;13.318;2023-04-08T01:30:54;58.13;;;23.17;;
57233;SDS011;43090;52.604;13.318;2023-04-08T01:33:23;55.05;;;23.05;;
57233;SDS011;43090;52.604;13.318;2023-04-08T01:51:14;85.55;;;27.10;;
57233;SDS011;43090;52.604;13.318;2023-04-08T01:53:42;71.88;;;25.05;;
57233;SDS011;43090;52.604;13.318;2023-04-08T01:56:10;70.80;;;25.75;;
57233;SDS011;43090;52.604;13.318;2023-04-08T01:58:40;79.97;;;26.42;;
57233;SDS011;43090;52.604;13.318;2023-04-08T02:01:12;64.95;;;26.20;;
57233;SDS011;43090;52.604;13.318;2023-04-08T02:03:43;69.53;;;24.67;;
57233;SDS011;43090;52.604;13.318;2023-04-08T02:06:12;65.70;;;24.38;;
57233;SDS011;43090;52.604;13.318;2023-04-08T02:08:38;62.03;;;23.98;;
57233;SDS011;43090;52.604;13.318;2023-04-08T02:11:05;66.05;;;25.45;;
57233;SDS011;43090;52.604;13.318;2023-04-08T02:13:32;54.33;;;23.20;;
57233;SDS011;43090;52.604;13.318;2023-04-08T02:18:39;54.80;;;21.75;;
57233;SDS011;43090;52.604;13.318;2023-04-08T02:21:14;69.20;;;23.48;;
57233;SDS011;43090;52.604;13.318;2023-04-08T02:23:57;58.58;;;23.00;;
57233;SDS011;43090;52.604;13.318;2023-04-08T02:26:27;61.45;;;23.63;;
57233;SDS011;43090;52.604;13.318;2023-04-08T02:28:53;69.43;;;23.35;;
57233;SDS011;43090;52.604;13.318;2023-04-08T02:31:21;66.22;;;23.75;;
57233;SDS011;43090;52.604;13.318;2023-04-08T02:33:49;55.20;;;23.65;;
57233;SDS011;43090;52.604;13.318;2023-04-08T02:36:17;58.67;;;24.35;;
57233;SDS011;43090;52.604;13.318;2023-04-08T02:38:47;69.13;;;25.17;;
57233;SDS011;43090;52.604;13.318;2023-04-08T02:41:27;65.72;;;23.60;;
57233;SDS011;43090;52.604;13.318;2023-04-08T02:43:55;63.17;;;25.55;;
57233;SDS011;43090;52.604;13.318;2023-04-08T02:46:22;59.30;;;24.95;;
57233;SDS011;43090;52.604;13.318;2023-04-08T02:51:15;66.82;;;23.65;;
57233;SDS011;43090;52.604;13.318;2023-04-08T02:53:42;71.35;;;27.08;;
57233;SDS011;43090;52.604;13.318;2023-04-08T02:56:09;57.63;;;23.05;;
57233;SDS011;43090;52.604;13.318;2023-04-08T02:58:36;66.25;;;25.48;;
57233;SDS011;43090;52.604;13.318;2023-04-08T03:01:03;60.33;;;23.83;;
57233;SDS011;43090;52.604;13.318;2023-04-08T03:03:30;67.18;;;25.05;;
57233;SDS011;43090;52.604;13.318;2023-04-08T03:08:23;60.77;;;22.70;;
57233;SDS011;43090;52.604;13.318;2023-04-08T03:10:51;64.60;;;24.45;;
57233;SDS011;43090;52.604;13.318;2023-04-08T03:13:17;60.63;;;24.15;;
57233;SDS011;43090;52.604;13.318;2023-04-08T03:15:44;64.25;;;22.88;;
57233;SDS011;43090;52.604;13.318;2023-04-08T03:18:10;70.13;;;24.48;;
57233;SDS011;43090;52.604;13.318;2023-04-08T03:20:37;70.60;;;24.95;;
57233;SDS011;43090;52.604;13.318;2023-04-08T03:23:03;76.80;;;24.92;;
57233;SDS011;43090;52.604;13.318;2023-04-08T03:25:30;78.85;;;27.17;;
57233;SDS011;43090;52.604;13.318;2023-04-08T03:27:57;56.17;;;22.98;;
57233;SDS011;43090;52.604;13.318;2023-04-08T03:30:23;67.03;;;25.63;;
57233;SDS011;43090;52.604;13.318;2023-04-08T03:35:19;66.85;;;25.05;;
57233;SDS011;43090;52.604;13.318;2023-04-08T03:37:46;66.43;;;25.15;;
57233;SDS011;43090;52.604;13.318;2023-04-08T03:40:12;63.50;;;24.48;;
57233;SDS011;43090;52.604;13.318;2023-04-08T03:42:39;70.75;;;23.85;;
57233;SDS011;43090;52.604;13.318;2023-04-08T03:47:32;59.25;;;23.92;;
57233;SDS011;43090;52.604;13.318;2023-04-08T03:49:59;60.00;;;24.35;;
57233;SDS011;43090;52.604;13.318;2023-04-08T03:52:26;66.47;;;25.65;;
57233;SDS011;43090;52.604;13.318;2023-04-08T03:54:52;77.78;;;26.85;;
57233;SDS011;43090;52.604;13.318;2023-04-08T03:57:19;75.55;;;27.55;;
57233;SDS011;43090;52.604;13.318;2023-04-08T03:59:45;68.43;;;24.70;;
57233;SDS011;43090;52.604;13.318;2023-04-08T04:02:12;71.30;;;26.58;;
57233;SDS011;43090;52.604;13.318;2023-04-08T04:07:05;61.60;;;24.27;;
57233;SDS011;43090;52.604;13.318;2023-04-08T04:11:58;67.03;;;24.02;;
57233;SDS011;43090;52.604;13.318;2023-04-08T04:14:24;68.10;;;25.27;;
57233;SDS011;43090;52.604;13.318;2023-04-08T04:16:51;68.60;;;23.58;;
57233;SDS011;43090;52.604;13.318;2023-04-08T04:19:17;70.03;;;25.17;;
57233;SDS011;43090;52.604;13.318;2023-04-08T04:21:44;69.45;;;24.92;;
57233;SDS011;43090;52.604;13.318;2023-04-08T04:24:11;71.05;;;24.70;;
57233;SDS011;43090;52.604;13.318;2023-04-08T04:26:39;69.10;;;25.40;;
57233;SDS011;43090;52.604;13.318;2023-04-08T04:29:06;72.47;;;27.10;;
57233;SDS011;43090;52.604;13.318;2023-04-08T04:31:33;70.13;;;25.92;;
57233;SDS011;43090;52.604;13.318;2023-04-08T04:33:59;62.83;;;24.35;;
57233;SDS011;43090;52.604;13.318;2023-04-08T04:36:26;74.25;;;26.23;;
57233;SDS011;43090;52.604;13.318;2023-04-08T04:38:52;72.25;;;25.35;;
57233;SDS011;43090;52.604;13.318;2023-04-08T04:43:46;73.05;;;25.27;;
57233;SDS011;43090;52.604;13.318;2023-04-08T04:49:03;69.05;;;24.98;;
57233;SDS011;43090;52.604;13.318;2023-04-08T04:51:30;68.28;;;25.65;;
57233;SDS011;43090;52.604;13.318;2023-04-08T04:53:58;76.45;;;27.08;;
57233;SDS011;43090;52.604;13.318;2023-04-08T04:56:24;58.97;;;23.23;;
57233;SDS011;43090;52.604;13.318;2023-04-08T04:58:52;62.85;;;24.85;;
57233;SDS011;43090;52.604;13.318;2023-04-08T05:01:18;65.43;;;26.27;;
57233;SDS011;43090;52.604;13.318;2023-04-08T05:06:48;65.72;;;26.02;;
57233;SDS011;43090;52.604;13.318;2023-04-08T05:09:15;71.50;;;26.17;;
57233;SDS011;43090;52.604;13.318;2023-04-08T05:14:08;56.92;;;22.38;;
57233;SDS011;43090;52.604;13.318;2023-04-08T05:16:34;64.68;;;25.58;;
57233;SDS011;43090;52.604;13.318;2023-04-08T05:19:01;63.20;;;26.05;;
57233;SDS011;43090;52.604;13.318;2023-04-08T05:21:27;68.30;;;24.77;;
57233;SDS011;43090;52.604;13.318;2023-04-08T05:23:57;69.68;;;26.55;;
57233;SDS011;43090;52.604;13.318;2023-04-08T05:26:24;72.80;;;25.90;;
57233;SDS011;43090;52.604;13.318;2023-04-08T05:28:51;71.13;;;26.55;;
57233;SDS011;43090;52.604;13.318;2023-04-08T05:31:18;79.90;;;29.73;;
57233;SDS011;43090;52.604;13.318;2023-04-08T05:33:45;80.00;;;28.65;;
57233;SDS011;43090;52.604;13.318;2023-04-08T05:36:13;84.63;;;27.95;;
57233;SDS011;43090;52.604;13.318;2023-04-08T05:38:39;57.20;;;23.23;;
57233;SDS011;43090;52.604;13.318;2023-04-08T05:41:08;65.53;;;25.30;;
57233;SDS011;43090;52.604;13.318;2023-04-08T05:46:05;68.10;;;25.65;;
57233;SDS011;43090;52.604;13.318;2023-04-08T05:48:33;66.50;;;27.52;;
57233;SDS011;43090;52.604;13.318;2023-04-08T05:51:00;80.05;;;27.20;;
57233;SDS011;43090;52.604;13.318;2023-04-08T05:55:53;75.47;;;25.88;;
57233;SDS011;43090;52.604;13.318;2023-04-08T05:58:19;71.53;;;26.73;;
57233;SDS011;43090;52.604;13.318;2023-04-08T06:00:48;66.78;;;27.05;;
57233;SDS011;43090;52.604;13.318;2023-04-08T06:03:14;67.32;;;27.42;;
57233;SDS011;43090;52.604;13.318;2023-04-08T06:05:45;72.57;;;27.92;;
57233;SDS011;43090;52.604;13.318;2023-04-08T06:08:14;62.42;;;25.25;;
57233;SDS011;43090;52.604;13.318;2023-04-08T06:10:47;68.03;;;26.50;;
57233;SDS011;43090;52.604;13.318;2023-04-08T06:13:15;73.63;;;27.75;;
57233;SDS011;43090;52.604;13.318;2023-04-08T06:15:42;69.25;;;26.30;;
57233;SDS011;43090;52.604;13.318;2023-04-08T06:20:35;67.45;;;26.02;;
57233;SDS011;43090;52.604;13.318;2023-04-08T06:23:02;69.05;;;26.27;;
57233;SDS011;43090;52.604;13.318;2023-04-08T06:25:32;74.05;;;28.63;;
57233;SDS011;43090;52.604;13.318;2023-04-08T06:27:59;77.50;;;26.90;;
57233;SDS011;43090;52.604;13.318;2023-04-08T06:30:25;75.00;;;27.85;;
57233;SDS011;43090;52.604;13.318;2023-04-08T06:32:52;65.43;;;25.10;;
57233;SDS011;43090;52.604;13.318;2023-04-08T06:35:21;84.05;;;28.60;;
57233;SDS011;43090;52.604;13.318;2023-04-08T06:37:48;80.25;;;27.75;;
57233;SDS011;43090;52.604;13.318;2023-04-08T06:40:15;75.00;;;30.10;;
57233;SDS011;43090;52.604;13.318;2023-04-08T06:42:41;71.25;;;28.20;;
57233;SDS011;43090;52.604;13.318;2023-04-08T06:45:09;75.00;;;27.60;;
57233;SDS011;43090;52.604;13.318;2023-04-08T06:47:36;80.03;;;28.40;;
57233;SDS011;43090;52.604;13.318;2023-04-08T06:50:03;75.30;;;26.63;;
57233;SDS011;43090;52.604;13.318;2023-04-08T06:52:29;81.60;;;29.27;;
57233;SDS011;43090;52.604;13.318;2023-04-08T06:54:56;73.95;;;26.25;;
57233;SDS011;43090;52.604;13.318;2023-04-08T06:57:23;79.82;;;30.08;;
57233;SDS011;43090;52.604;13.318;2023-04-08T06:59:49;85.00;;;30.65;;
57233;SDS011;43090;52.604;13.318;2023-04-08T07:04:43;72.80;;;27.17;;
57233;SDS011;43090;52.604;13.318;2023-04-08T07:07:12;70.35;;;26.52;;
57233;SDS011;43090;52.604;13.318;2023-04-08T07:12:06;81.55;;;28.25;;
57233;SDS011;43090;52.604;13.318;2023-04-08T07:14:33;71.32;;;27.25;;
57233;SDS011;43090;52.604;13.318;2023-04-08T07:16:59;72.63;;;28.48;;
57233;SDS011;43090;52.604;13.318;2023-04-08T07:19:26;68.25;;;26.50;;
57233;SDS011;43090;52.604;13.318;2023-04-08T07:21:53;72.93;;;29.05;;
57233;SDS011;43090;52.604;13.318;2023-04-08T07:24:20;74.20;;;30.42;;
57233;SDS011;43090;52.604;13.318;2023-04-08T07:26:46;81.60;;;28.98;;
57233;SDS011;43090;52.604;13.318;2023-04-08T07:29:13;76.20;;;28.85;;
57233;SDS011;43090;52.604;13.318;2023-04-08T07:31:39;82.25;;;28.70;;
57233;SDS011;43090;52.604;13.318;2023-04-08T07:34:06;78.43;;;29.55;;
57233;SDS011;43090;52.604;13.318;2023-04-08T07:36:32;82.45;;;29.25;;
57233;SDS011;43090;52.604;13.318;2023-04-08T07:38:58;80.88;;;29.27;;
57233;SDS011;43090;52.604;13.318;2023-04-08T07:41:25;76.80;;;30.00;;
57233;SDS011;43090;52.604;13.318;2023-04-08T07:43:52;73.15;;;28.00;;
57233;SDS011;43090;52.604;13.318;2023-04-08T07:46:18;74.22;;;29.45;;
57233;SDS011;43090;52.604;13.318;2023-04-08T07:48:46;71.78;;;27.60;;
57233;SDS011;43090;52.604;13.318;2023-04-08T07:51:12;70.25;;;29.63;;
57233;SDS011;43090;52.604;13.318;2023-04-08T07:53:40;67.47;;;28.02;;
57233;SDS011;43090;52.604;13.318;2023-04-08T07:56:10;73.82;;;30.13;;
57233;SDS011;43090;52.604;13.318;2023-04-08T07:58:41;76.18;;;29.08;;
57233;SDS011;43090;52.604;13.318;2023-04-08T08:01:16;78.65;;;29.45;;
57233;SDS011;43090;52.604;13.318;2023-04-08T08:03:52;81.33;;;29.00;;
57233;SDS011;43090;52.604;13.318;2023-04-08T08:06:29;74.22;;;27.52;;
57233;SDS011;43090;52.604;13.318;2023-04-08T08:08:57;72.22;;;29.52;;
57233;SDS011;43090;52.604;13.318;2023-04-08T08:11:24;75.65;;;29.60;;
57233;SDS011;43090;52.604;13.318;2023-04-08T08:13:53;68.38;;;28.95;;
57233;SDS011;43090;52.604;13.318;2023-04-08T08:16:20;71.75;;;28.98;;
57233;SDS011;43090;52.604;13.318;2023-04-08T08:18:46;70.30;;;27.63;;
57233;SDS011;43090;52.604;13.318;2023-04-08T08:21:13;69.85;;;28.63;;
57233;SDS011;43090;52.604;13.318;2023-04-08T08:23:39;71.63;;;28.52;;
57233;SDS011;43090;52.604;13.318;2023-04-08T08:26:06;72.82;;;28.27;;
57233;SDS011;43090;52.604;13.318;2023-04-08T08:28:37;64.90;;;25.70;;
57233;SDS011;43090;52.604;13.318;2023-04-08T08:31:04;67.07;;;27.05;;
57233;SDS011;43090;52.604;13.318;2023-04-08T08:33:31;70.57;;;28.05;;
57233;SDS011;43090;52.604;13.318;2023-04-08T08:35:58;67.63;;;26.67;;
57233;SDS011;43090;52.604;13.318;2023-04-08T08:40:53;71.32;;;24.70;;
57233;SDS011;43090;52.604;13.318;2023-04-08T08:43:23;64.72;;;26.50;;
57233;SDS011;43090;52.604;13.318;2023-04-08T08:46:00;55.80;;;25.15;;
57233;SDS011;43090;52.604;13.318;2023-04-08T08:50:53;67.85;;;26.95;;
57233;SDS011;43090;52.604;13.318;2023-04-08T08:53:20;76.13;;;27.77;;
57233;SDS011;43090;52.604;13.318;2023-04-08T08:55:48;68.70;;;26.13;;
57233;SDS011;43090;52.604;13.318;2023-04-08T08:58:35;64.05;;;25.27;;
57233;SDS011;43090;52.604;13.318;2023-04-08T09:07:44;68.80;;;27.60;;
57233;SDS011;43090;52.604;13.318;2023-04-08T09:10:12;62.75;;;24.60;;
57233;SDS011;43090;52.604;13.318;2023-04-08T09:12:54;70.15;;;27.25;;
57233;SDS011;43090;52.604;13.318;2023-04-08T09:15:24;60.78;;;24.17;;
57233;SDS011;43090;52.604;13.318;2023-04-08T09:18:04;77.47;;;27.20;;
57233;SDS011;43090;52.604;13.318;2023-04-08T09:20:51;70.25;;;27.02;;
57233;SDS011;43090;52.604;13.318;2023-04-08T09:26:54;69.18;;;27.10;;
57233;SDS011;43090;52.604;13.318;2023-04-08T09:29:29;70.25;;;27.92;;
57233;SDS011;43090;52.604;13.318;2023-04-08T09:32:22;58.85;;;23.67;;
57233;SDS011;43090;52.604;13.318;2023-04-08T09:34:54;70.78;;;26.65;;
57233;SDS011;43090;52.604;13.318;2023-04-08T09:37:26;73.30;;;28.08;;
57233;SDS011;43090;52.604;13.318;2023-04-08T09:39:53;63.47;;;27.15;;
57233;SDS011;43090;52.604;13.318;2023-04-08T09:42:20;70.60;;;27.52;;
57233;SDS011;43090;52.604;13.318;2023-04-08T09:44:47;71.55;;;28.63;;
57233;SDS011;43090;52.604;13.318;2023-04-08T09:47:23;58.10;;;26.13;;
57233;SDS011;43090;52.604;13.318;2023-04-08T09:49:54;62.50;;;26.05;;
57233;SDS011;43090;52.604;13.318;2023-04-08T09:52:48;68.88;;;25.80;;
57233;SDS011;43090;52.604;13.318;2023-04-08T09:55:25;57.63;;;25.88;;
57233;SDS011;43090;52.604;13.318;2023-04-08T09:58:00;63.88;;;24.98;;
57233;SDS011;43090;52.604;13.318;2023-04-08T10:00:31;66.90;;;27.13;;
57233;SDS011;43090;52.604;13.318;2023-04-08T10:03:10;55.60;;;25.42;;
57233;SDS011;43090;52.604;13.318;2023-04-08T10:05:37;54.55;;;23.40;;
57233;SDS011;43090;52.604;13.318;2023-04-08T10:08:06;55.10;;;22.65;;
57233;SDS011;43090;52.604;13.318;2023-04-08T10:13:01;50.60;;;23.30;;
57233;SDS011;43090;52.604;13.318;2023-04-08T10:15:29;52.45;;;22.40;;
57233;SDS011;43090;52.604;13.318;2023-04-08T10:20:49;41.50;;;20.77;;
57233;SDS011;43090;52.604;13.318;2023-04-08T10:23:16;48.90;;;22.65;;
57233;SDS011;43090;52.604;13.318;2023-04-08T10:25:44;45.35;;;21.48;;
57233;SDS011;43090;52.604;13.318;2023-04-08T10:31:01;44.85;;;21.08;;
57233;SDS011;43090;52.604;13.318;2023-04-08T10:36:08;47.88;;;20.85;;
57233;SDS011;43090;52.604;13.318;2023-04-08T10:38:36;42.10;;;19.50;;
57233;SDS011;43090;52.604;13.318;2023-04-08T10:41:04;43.47;;;19.75;;
57233;SDS011;43090;52.604;13.318;2023-04-08T10:43:31;42.38;;;20.02;;
57233;SDS011;43090;52.604;13.318;2023-04-08T10:45:58;42.67;;;19.35;;
57233;SDS011;43090;52.604;13.318;2023-04-08T10:48:25;41.45;;;19.95;;
57233;SDS011;43090;52.604;13.318;2023-04-08T10:50:57;41.60;;;18.67;;
57233;SDS011;43090;52.604;13.318;2023-04-08T10:56:06;44.05;;;20.00;;
57233;SDS011;43090;52.604;13.318;2023-04-08T10:58:46;42.47;;;20.73;;
57233;SDS011;43090;52.604;13.318;2023-04-08T11:01:14;44.53;;;21.20;;
57233;SDS011;43090;52.604;13.318;2023-04-08T11:03:41;39.35;;;19.33;;
57233;SDS011;43090;52.604;13.318;2023-04-08T11:06:08;38.53;;;17.77;;
57233;SDS011;43090;52.604;13.318;2023-04-08T11:11:05;31.67;;;15.90;;
57233;SDS011;43090;52.604;13.318;2023-04-08T11:13:37;31.35;;;15.65;;
57233;SDS011;43090;52.604;13.318;2023-04-08T11:16:11;29.95;;;15.73;;
57233;SDS011;43090;52.604;13.318;2023-04-08T11:18:43;31.17;;;16.20;;
57233;SDS011;43090;52.604;13.318;2023-04-08T11:21:11;30.73;;;16.03;;
57233;SDS011;43090;52.604;13.318;2023-04-08T11:23:37;33.60;;;18.13;;
57233;SDS011;43090;52.604;13.318;2023-04-08T11:26:04;30.05;;;16.30;;
57233;SDS011;43090;52.604;13.318;2023-04-08T11:28:31;33.97;;;16.88;;
57233;SDS011;43090;52.604;13.318;2023-04-08T11:30:59;33.15;;;16.48;;
57233;SDS011;43090;52.604;13.318;2023-04-08T11:33:25;35.03;;;16.30;;
57233;SDS011;43090;52.604;13.318;2023-04-08T11:35:55;31.98;;;17.45;;
57233;SDS011;43090;52.604;13.318;2023-04-08T11:38:22;35.15;;;16.45;;
57233;SDS011;43090;52.604;13.318;2023-04-08T11:40:53;34.80;;;16.05;;
57233;SDS011;43090;52.604;13.318;2023-04-08T11:43:20;32.50;;;15.73;;
57233;SDS011;43090;52.604;13.318;2023-04-08T11:45:48;34.10;;;16.33;;
57233;SDS011;43090;52.604;13.318;2023-04-08T11:48:15;34.22;;;16.83;;
57233;SDS011;43090;52.604;13.318;2023-04-08T11:53:37;36.65;;;17.65;;
57233;SDS011;43090;52.604;13.318;2023-04-08T11:56:16;35.20;;;16.67;;
57233;SDS011;43090;52.604;13.318;2023-04-08T11:58:44;32.85;;;15.77;;
57233;SDS011;43090;52.604;13.318;2023-04-08T12:01:11;34.25;;;16.05;;
57233;SDS011;43090;52.604;13.318;2023-04-08T12:03:37;32.90;;;16.13;;
57233;SDS011;43090;52.604;13.318;2023-04-08T12:06:04;33.13;;;16.85;;
57233;SDS011;43090;52.604;13.318;2023-04-08T12:08:32;33.53;;;17.38;;
57233;SDS011;43090;52.604;13.318;2023-04-08T12:10:59;34.00;;;17.15;;
57233;SDS011;43090;52.604;13.318;2023-04-08T12:13:42;34.95;;;16.58;;
57233;SDS011;43090;52.604;13.318;2023-04-08T12:16:08;30.23;;;15.40;;
57233;SDS011;43090;52.604;13.318;2023-04-08T12:18:35;33.80;;;17.38;;
57233;SDS011;43090;52.604;13.318;2023-04-08T12:21:02;29.42;;;16.15;;
57233;SDS011;43090;52.604;13.318;2023-04-08T12:23:29;30.48;;;16.80;;
57233;SDS011;43090;52.604;13.318;2023-04-08T12:25:55;30.55;;;17.67;;
57233;SDS011;43090;52.604;13.318;2023-04-08T12:28:22;33.58;;;16.92;;
57233;SDS011;43090;52.604;13.318;2023-04-08T12:30:48;27.33;;;15.10;;
57233;SDS011;43090;52.604;13.318;2023-04-08T12:33:14;33.13;;;17.65;;
57233;SDS011;43090;52.604;13.318;2023-04-08T12:35:41;34.50;;;17.17;;
57233;SDS011;43090;52.604;13.318;2023-04-08T12:38:08;28.58;;;16.48;;
57233;SDS011;43090;52.604;13.318;2023-04-08T12:40:35;32.05;;;15.95;;
57233;SDS011;43090;52.604;13.318;2023-04-08T12:43:01;35.58;;;16.30;;
57233;SDS011;43090;52.604;13.318;2023-04-08T12:47:55;31.13;;;17.02;;
57233;SDS011;43090;52.604;13.318;2023-04-08T12:50:21;29.95;;;15.65;;
57233;SDS011;43090;52.604;13.318;2023-04-08T12:52:48;30.02;;;16.30;;
57233;SDS011;43090;52.604;13.318;2023-04-08T12:55:15;29.80;;;14.88;;
57233;SDS011;43090;52.604;13.318;2023-04-08T12:57:41;29.73;;;14.82;;
57233;SDS011;43090;52.604;13.318;2023-04-08T13:00:08;24.35;;;14.35;;
57233;SDS011;43090;52.604;13.318;2023-04-08T13:02:36;25.13;;;14.43;;
57233;SDS011;43090;52.604;13.318;2023-04-08T13:05:04;28.65;;;14.98;;
57233;SDS011;43090;52.604;13.318;2023-04-08T13:07:30;27.90;;;14.52;;
57233;SDS011;43090;52.604;13.318;2023-04-08T13:09:57;24.77;;;14.43;;
57233;SDS011;43090;52.604;13.318;2023-04-08T13:12:23;24.25;;;15.00;;
57233;SDS011;43090;52.604;13.318;2023-04-08T13:14:50;28.02;;;14.60;;
57233;SDS011;43090;52.604;13.318;2023-04-08T13:17:16;25.00;;;12.52;;
57233;SDS011;43090;52.604;13.318;2023-04-08T13:19:43;22.88;;;13.60;;
57233;SDS011;43090;52.604;13.318;2023-04-08T13:22:09;22.75;;;13.65;;
57233;SDS011;43090;52.604;13.318;2023-04-08T13:24:36;26.08;;;15.63;;
57233;SDS011;43090;52.604;13.318;2023-04-08T13:29:29;22.70;;;12.98;;
57233;SDS011;43090;52.604;13.318;2023-04-08T13:31:58;28.02;;;14.32;;
57233;SDS011;43090;52.604;13.318;2023-04-08T13:34:26;24.77;;;14.38;;
57233;SDS011;43090;52.604;13.318;2023-04-08T13:36:53;23.80;;;14.50;;
57233;SDS011;43090;52.604;13.318;2023-04-08T13:39:19;29.10;;;15.27;;
57233;SDS011;43090;52.604;13.318;2023-04-08T13:41:46;26.58;;;14.75;;
57233;SDS011;43090;52.604;13.318;2023-04-08T13:46:39;24.58;;;13.48;;
57233;SDS011;43090;52.604;13.318;2023-04-08T13:49:07;21.90;;;13.18;;
57233;SDS011;43090;52.604;13.318;2023-04-08T13:51:34;18.30;;;11.57;;
57233;SDS011;43090;52.604;13.318;2023-04-08T13:54:01;19.08;;;11.63;;
57233;SDS011;43090;52.604;13.318;2023-04-08T13:58:54;22.05;;;11.95;;
57233;SDS011;43090;52.604;13.318;2023-04-08T14:01:22;21.90;;;12.30;;
57233;SDS011;43090;52.604;13.318;2023-04-08T14:03:49;18.05;;;11.73;;
57233;SDS011;43090;52.604;13.318;2023-04-08T14:06:16;21.63;;;11.52;;
57233;SDS011;43090;52.604;13.318;2023-04-08T14:08:42;20.50;;;11.95;;
57233;SDS011;43090;52.604;13.318;2023-04-08T14:11:08;18.85;;;10.80;;
57233;SDS011;43090;52.604;13.318;2023-04-08T14:13:35;18.83;;;11.43;;
57233;SDS011;43090;52.604;13.318;2023-04-08T14:16:02;20.40;;;12.00;;
57233;SDS011;43090;52.604;13.318;2023-04-08T14:18:28;20.17;;;11.00;;
57233;SDS011;43090;52.604;13.318;2023-04-08T14:20:55;22.05;;;12.45;;
57233;SDS011;43090;52.604;13.318;2023-04-08T14:25:48;19.25;;;11.13;;
57233;SDS011;43090;52.604;13.318;2023-04-08T14:28:14;17.98;;;11.40;;
57233;SDS011;43090;52.604;13.318;2023-04-08T14:30:41;17.80;;;11.40;;
57233;SDS011;43090;52.604;13.318;2023-04-08T14:33:08;22.35;;;12.77;;
57233;SDS011;43090;52.604;13.318;2023-04-08T14:35:35;22.40;;;12.25;;
57233;SDS011;43090;52.604;13.318;2023-04-08T14:38:01;24.85;;;13.32;;
57233;SDS011;43090;52.604;13.318;2023-04-08T14:40:28;20.80;;;12.90;;
57233;SDS011;43090;52.604;13.318;2023-04-08T14:42:54;23.38;;;13.55;;
57233;SDS011;43090;52.604;13.318;2023-04-08T14:47:48;22.80;;;12.05;;
57233;SDS011;43090;52.604;13.318;2023-04-08T14:50:14;19.65;;;11.20;;
57233;SDS011;43090;52.604;13.318;2023-04-08T14:55:10;19.40;;;11.23;;
57233;SDS011;43090;52.604;13.318;2023-04-08T14:57:36;17.90;;;11.35;;
57233;SDS011;43090;52.604;13.318;2023-04-08T15:00:03;18.77;;;10.40;;
57233;SDS011;43090;52.604;13.318;2023-04-08T15:02:30;21.25;;;10.25;;
57233;SDS011;43090;52.604;13.318;2023-04-08T15:04:56;17.95;;;9.63;;
57233;SDS011;43090;52.604;13.318;2023-04-08T15:07:23;16.75;;;10.07;;
57233;SDS011;43090;52.604;13.318;2023-04-08T15:09:49;15.18;;;10.18;;
57233;SDS011;43090;52.604;13.318;2023-04-08T15:12:16;14.40;;;9.48;;
57233;SDS011;43090;52.604;13.318;2023-04-08T15:14:42;15.88;;;9.38;;
57233;SDS011;43090;52.604;13.318;2023-04-08T15:17:09;14.45;;;9.50;;
57233;SDS011;43090;52.604;13.318;2023-04-08T15:19:35;13.68;;;8.93;;
57233;SDS011;43090;52.604;13.318;2023-04-08T15:22:02;13.13;;;8.40;;
57233;SDS011;43090;52.604;13.318;2023-04-08T15:24:28;13.05;;;8.18;;
57233;SDS011;43090;52.604;13.318;2023-04-08T15:26:55;16.95;;;8.73;;
57233;SDS011;43090;52.604;13.318;2023-04-08T15:29:21;14.63;;;8.70;;
57233;SDS011;43090;52.604;13.318;2023-04-08T15:31:49;13.68;;;8.70;;
57233;SDS011;43090;52.604;13.318;2023-04-08T15:34:15;18.38;;;8.50;;
57233;SDS011;43090;52.604;13.318;2023-04-08T15:36:42;12.32;;;8.48;;
57233;SDS011;43090;52.604;13.318;2023-04-08T15:39:08;14.55;;;9.20;;
57233;SDS011;43090;52.604;13.318;2023-04-08T15:41:35;13.02;;;8.07;;
57233;SDS011;43090;52.604;13.318;2023-04-08T15:44:01;13.45;;;8.55;;
57233;SDS011;43090;52.604;13.318;2023-04-08T15:46:28;12.30;;;8.50;;
57233;SDS011;43090;52.604;13.318;2023-04-08T15:48:54;13.77;;;8.57;;
57233;SDS011;43090;52.604;13.318;2023-04-08T15:51:21;12.73;;;8.75;;
57233;SDS011;43090;52.604;13.318;2023-04-08T15:53:47;13.23;;;8.40;;
57233;SDS011;43090;52.604;13.318;2023-04-08T15:56:17;11.68;;;7.20;;
57233;SDS011;43090;52.604;13.318;2023-04-08T15:58:44;15.90;;;9.25;;
57233;SDS011;43090;52.604;13.318;2023-04-08T16:01:11;13.98;;;9.98;;
57233;SDS011;43090;52.604;13.318;2023-04-08T16:03:37;14.02;;;8.63;;
57233;SDS011;43090;52.604;13.318;2023-04-08T16:08:32;13.38;;;7.95;;
57233;SDS011;43090;52.604;13.318;2023-04-08T16:11:00;11.90;;;7.05;;
57233;SDS011;43090;52.604;13.318;2023-04-08T16:13:28;12.55;;;8.60;;